Time;durP1;ratioP1;P1;durP2;ratioP2;P2;SDS_P1;SDS_P2;PMS_P1;PMS_P2;Temp;Humidity;BMP_temperature;BMP_pressure;BME280_temperature;BME280_humidity;BME280_pressure;Samples;Min_cycle;Max_cycle;Signal;HPM_P1;HPM_P2
2022/03/10 00:01:32;;;;;;;;;33.00;30.50;;;;;13.78;61.91;101660.53;5076107;28;46546;-77
2022/03/10 00:03:58;;;;;;;;;39.25;32.00;;;;;13.83;61.97;101671.16;5076210;28;45734;-77
2022/03/10 00:06:23;;;;;;;;;36.50;33.50;;;;;13.81;61.88;101671.91;5075999;28;45267;-77
2022/03/10 00:08:49;;;;;;;;;37.75;32.50;;;;;13.78;62.19;101662.25;5076901;28;45310;-79
2022/03/10 00:11:14;;;;;;;;;39.75;33.00;;;;;13.84;62.03;101674.63;5076270;28;45417;-77
2022/03/10 00:13:40;;;;;;;;;37.25;32.25;;;;;13.71;61.91;101650.69;5077487;28;45335;-79
2022/03/10 00:16:06;;;;;;;;;36.75;32.25;;;;;13.78;62.01;101667.44;5077041;28;45334;-76
2022/03/10 00:18:31;;;;;;;;;34.75;30.00;;;;;13.83;62.29;101665.03;5075763;28;45429;-77
2022/03/10 00:20:57;;;;;;;;;27.25;25.25;;;;;13.86;61.80;101666.09;5076277;28;45701;-77
2022/03/10 00:23:22;;;;;;;;;33.50;27.75;;;;;13.86;61.47;101662.59;5075798;28;45280;-78
2022/03/10 00:25:48;;;;;;;;;35.75;30.50;;;;;13.84;61.54;101664.22;5076374;28;45283;-79
2022/03/10 00:28:14;;;;;;;;;38.25;32.75;;;;;13.83;61.66;101663.34;5076426;28;45709;-78
2022/03/10 00:30:40;;;;;;;;;39.50;34.00;;;;;13.74;61.83;101653.41;5076967;28;45458;-79
2022/03/10 00:33:05;;;;;;;;;36.50;33.25;;;;;13.75;61.79;101656.91;5077683;28;45307;-77
2022/03/10 00:35:31;;;;;;;;;37.75;33.00;;;;;13.55;61.79;101630.84;5080031;28;45249;-80
2022/03/10 00:37:58;;;;;;;;;31.75;29.50;;;;;13.58;61.79;101641.41;5079717;28;45225;-81
2022/03/10 00:40:24;;;;;;;;;37.25;33.00;;;;;13.72;61.57;101662.84;5079325;27;45498;-80
2022/03/10 00:42:49;;;;;;;;;35.50;30.25;;;;;13.78;62.05;101676.16;5093888;27;45302;-78
2022/03/10 00:45:16;;;;;;;;;40.50;32.50;;;;;13.78;61.85;101680.47;5099799;27;45337;-78
2022/03/10 00:47:42;;;;;;;;;36.75;33.00;;;;;13.78;61.93;101683.06;5083667;27;45543;-79
2022/03/10 00:50:09;;;;;;;;;39.00;32.50;;;;;13.76;62.17;101680.41;5086193;28;45420;-78
2022/03/10 00:52:45;;;;;;;;;41.00;36.00;;;;;13.76;62.19;101677.78;5082220;28;45359;-77
2022/03/10 00:55:12;;;;;;;;;33.75;31.00;;;;;13.71;62.04;101668.91;5078019;28;45288;-77
2022/03/10 00:57:38;;;;;;;;;43.75;34.75;;;;;13.72;62.27;101669.78;5079236;28;45630;-78
2022/03/10 01:00:06;;;;;;;;;39.25;34.50;;;;;13.66;62.36;101672.13;5078484;28;45250;-77
2022/03/10 01:02:32;;;;;;;;;35.75;31.00;;;;;13.65;62.33;101671.22;5079396;28;45875;-78
2022/03/10 01:04:58;;;;;;;;;35.50;32.75;;;;;13.67;62.20;101674.78;5078899;28;46129;-78
2022/03/10 01:07:24;;;;;;;;;41.50;32.50;;;;;13.68;62.34;101676.56;5079133;27;45403;-80
2022/03/10 01:09:49;;;;;;;;;34.75;31.00;;;;;13.69;61.96;101675.75;5078611;27;45964;-77
2022/03/10 01:12:15;;;;;;;;;38.50;33.25;;;;;13.69;62.24;101669.63;5091277;27;45464;-77
2022/03/10 01:14:41;;;;;;;;;35.75;30.50;;;;;13.58;62.25;101651.81;5099330;27;45263;-77
2022/03/10 01:17:06;;;;;;;;;37.00;32.25;;;;;13.69;61.98;101673.16;5099340;27;45432;-78
2022/03/10 01:19:32;;;;;;;;;34.75;30.25;;;;;13.67;62.08;101673.88;5099216;27;45434;-78
2022/03/10 01:21:57;;;;;;;;;37.50;33.50;;;;;13.70;61.78;101679.22;5097607;27;45350;-77
2022/03/10 01:24:24;;;;;;;;;37.75;32.50;;;;;13.62;61.51;101671.97;5099301;27;45435;-79
2022/03/10 01:26:50;;;;;;;;;36.75;32.00;;;;;13.64;61.01;101677.22;5099540;27;45521;-77
2022/03/10 01:29:15;;;;;;;;;39.25;34.00;;;;;13.67;61.32;101677.38;5106137;27;45440;-78
2022/03/10 01:31:41;;;;;;;;;33.50;30.25;;;;;13.57;61.27;101675.19;5102316;27;45417;-77
2022/03/10 01:34:07;;;;;;;;;36.50;32.75;;;;;13.51;60.95;101654.06;5077372;28;45523;-77
2022/03/10 01:36:33;;;;;;;;;37.00;32.00;;;;;13.55;61.05;101667.28;5079185;27;45430;-78
2022/03/10 01:39:03;;;;;;;;;34.00;30.25;;;;;13.44;61.13;101663.31;5078646;27;45982;-78
2022/03/10 01:41:28;;;;;;;;;41.25;32.50;;;;;13.50;61.00;101666.19;5078349;28;45398;-78
2022/03/10 01:44:02;;;;;;;;;33.25;31.00;;;;;13.45;61.31;101657.25;5077451;27;45333;-77
2022/03/10 01:46:29;;;;;;;;;35.50;31.75;;;;;13.44;61.22;101663.31;5078371;27;45467;-79
2022/03/10 01:48:55;;;;;;;;;34.75;31.00;;;;;13.41;61.18;101663.16;5078259;27;45523;-77
2022/03/10 01:51:22;;;;;;;;;33.50;29.50;;;;;13.37;60.99;101656.91;5077629;27;45419;-78
2022/03/10 01:53:50;;;;;;;;;30.00;28.25;;;;;13.37;61.14;101656.00;5077295;28;45589;-79
2022/03/10 01:56:20;;;;;;;;;33.25;30.25;;;;;13.38;61.08;101665.56;5078187;28;45247;-77
2022/03/10 01:58:47;;;;;;;;;30.00;29.00;;;;;13.36;60.86;101657.72;5077955;28;45460;-77
2022/03/10 02:01:13;;;;;;;;;32.25;30.25;;;;;13.27;60.76;101649.47;5077780;28;45328;-79
2022/03/10 02:03:38;;;;;;;;;36.75;30.50;;;;;13.26;60.75;101643.38;5076904;28;45740;-78
2022/03/10 02:06:05;;;;;;;;;36.25;31.25;;;;;13.29;60.72;101659.13;5078854;28;45425;-77
2022/03/10 02:11:17;;;;;;;;;34.25;29.75;;;;;13.28;60.81;101654.75;5080267;28;45250;-78
2022/03/10 02:13:42;;;;;;;;;35.25;29.50;;;;;13.26;60.52;101653.78;5078040;28;45315;-76
2022/03/10 02:19:00;;;;;;;;;39.75;28.00;;;;;13.22;60.57;101659.66;5079470;28;45661;-78
2022/03/10 02:21:26;;;;;;;;;33.25;31.50;;;;;13.23;60.94;101658.81;5078023;28;45212;-77
2022/03/10 02:23:53;;;;;;;;;34.25;29.50;;;;;13.16;60.68;101656.75;5077565;28;45224;-77
2022/03/10 02:26:19;;;;;;;;;35.00;31.50;;;;;13.22;60.69;101661.34;5077601;27;45318;-78
2022/03/10 02:28:45;;;;;;;;;36.75;30.75;;;;;13.20;60.56;101661.28;5077576;27;45954;-78
2022/03/10 02:31:11;;;;;;;;;33.75;31.00;;;;;13.10;60.38;101648.69;5076959;27;45859;-77
2022/03/10 02:33:37;;;;;;;;;37.25;33.00;;;;;13.19;60.43;101666.41;5076176;28;45369;-76
2022/03/10 02:36:04;;;;;;;;;35.50;30.25;;;;;13.13;60.33;101667.00;5077958;28;45335;-78
2022/03/10 02:38:30;;;;;;;;;36.75;31.25;;;;;13.06;60.72;101672.72;5077624;27;45413;-77
2022/03/10 02:40:56;;;;;;;;;37.75;30.00;;;;;12.96;61.75;101663.59;5078046;27;46011;-77
2022/03/10 02:43:22;;;;;;;;;33.75;30.00;;;;;12.87;62.43;101679.63;5076743;27;45328;-77
2022/03/10 02:45:49;;;;;;;;;39.00;33.00;;;;;12.71;63.18;101678.00;5077592;28;45463;-78
2022/03/10 02:48:15;;;;;;;;;38.00;32.25;;;;;12.68;64.01;101683.03;5084326;28;46127;-80
2022/03/10 02:50:42;;;;;;;;;37.00;32.00;;;;;12.63;64.21;101677.59;5080790;27;45931;-78
2022/03/10 02:53:08;;;;;;;;;37.25;30.75;;;;;12.47;64.34;101649.94;5077297;28;45322;-77
2022/03/10 02:55:34;;;;;;;;;35.75;31.25;;;;;12.62;64.15;101675.81;5077714;28;45568;-81
2022/03/10 02:58:00;;;;;;;;;32.00;29.50;;;;;12.62;63.99;101677.53;5078794;28;45903;-75
2022/03/10 03:00:25;;;;;;;;;38.25;31.50;;;;;12.54;64.24;101665.03;5076708;28;45461;-75
2022/03/10 03:02:52;;;;;;;;;34.75;31.75;;;;;12.60;64.24;101673.97;5077148;28;45381;-75
2022/03/10 03:05:18;;;;;;;;;36.50;32.75;;;;;12.58;63.89;101668.66;5077123;28;45268;-75
2022/03/10 03:07:44;;;;;;;;;40.00;33.75;;;;;12.63;63.69;101680.19;5076919;28;46630;-75
2022/03/10 03:10:11;;;;;;;;;40.75;31.25;;;;;12.64;63.30;101681.06;5076460;28;45400;-78
2022/03/10 03:12:51;;;;;;;;;34.00;30.25;;;;;12.59;62.82;101678.25;5076954;28;45528;-76
2022/03/10 03:15:17;;;;;;;;;34.50;32.50;;;;;12.64;62.33;101681.97;5076874;28;45463;-76
2022/03/10 03:17:43;;;;;;;;;24.75;24.75;;;;;12.59;62.20;101682.56;5076665;28;45381;-76
2022/03/10 03:20:14;;;;;;;;;31.75;28.50;;;;;12.64;62.01;101689.78;5076283;28;45788;-75
2022/03/10 03:22:42;;;;;;;;;32.75;31.00;;;;;12.63;61.72;101690.59;5075615;28;45404;-78
2022/03/10 03:25:16;;;;;;;;;32.75;30.00;;;;;12.63;61.69;101690.59;5080861;27;45534;-76
2022/03/10 03:27:42;;;;;;;;;30.00;26.25;;;;;12.64;61.55;101692.38;5080420;28;45282;-78
2022/03/10 03:30:09;;;;;;;;;32.25;29.75;;;;;12.58;60.98;101698.97;5076578;27;45230;-78
2022/03/10 03:32:34;;;;;;;;;38.50;31.25;;;;;12.51;61.00;101689.97;5077225;27;45566;-75
2022/03/10 03:35:00;;;;;;;;;34.75;31.00;;;;;12.45;61.28;101698.31;5077289;28;45421;-76
2022/03/10 03:37:26;;;;;;;;;28.00;26.75;;;;;12.28;61.40;101675.81;5076085;28;45968;-77
2022/03/10 03:39:51;;;;;;;;;32.75;27.00;;;;;12.32;61.85;101689.03;5076814;27;45433;-80
2022/03/10 03:42:17;;;;;;;;;34.00;29.50;;;;;12.28;61.88;101694.84;5076604;27;45271;-78
2022/03/10 03:44:43;;;;;;;;;28.75;25.00;;;;;12.08;61.90;101665.28;5077105;27;45383;-78
2022/03/10 03:47:08;;;;;;;;;34.50;29.50;;;;;12.09;62.32;101685.25;5076492;27;46043;-78
2022/03/10 03:49:34;;;;;;;;;32.50;28.25;;;;;12.09;62.59;101698.22;5076201;27;45421;-78
2022/03/10 03:51:59;;;;;;;;;38.50;32.25;;;;;12.00;63.06;101695.09;5076842;27;45382;-77
2022/03/10 03:54:25;;;;;;;;;25.25;23.75;;;;;11.98;63.15;101700.22;5076349;28;45354;-76
2022/03/10 03:56:51;;;;;;;;;33.50;28.25;;;;;11.95;63.49;101700.00;5076072;27;46108;-76
2022/03/10 03:59:16;;;;;;;;;31.00;25.75;;;;;11.97;63.30;101708.78;5075935;27;45222;-76
2022/03/10 04:01:42;;;;;;;;;30.50;27.00;;;;;11.88;63.63;101695.31;5076425;28;45258;-77
2022/03/10 04:04:08;;;;;;;;;31.25;30.25;;;;;11.89;64.01;101684.13;5076420;27;45550;-75
2022/03/10 04:06:33;;;;;;;;;41.75;31.75;;;;;11.97;63.52;101705.31;5082998;27;45349;-75
2022/03/10 04:08:59;;;;;;;;;28.25;25.50;;;;;11.96;63.69;101706.13;5083623;27;45255;-75
2022/03/10 04:11:25;;;;;;;;;34.50;30.50;;;;;11.91;64.01;101700.69;5078585;27;45552;-75
2022/03/10 04:13:50;;;;;;;;;30.75;27.25;;;;;11.88;64.03;101693.59;5079938;27;45502;-76
2022/03/10 04:16:16;;;;;;;;;34.25;31.00;;;;;11.97;64.28;101700.13;5079299;27;46146;-75
2022/03/10 04:18:42;;;;;;;;;36.50;31.00;;;;;11.91;63.92;101690.31;5079514;28;45275;-77
2022/03/10 04:21:07;;;;;;;;;37.25;31.00;;;;;11.93;63.71;101692.16;5079189;27;45432;-76
2022/03/10 04:23:33;;;;;;;;;29.75;27.75;;;;;12.01;64.25;101707.28;5080305;27;45626;-75
2022/03/10 04:25:59;;;;;;;;;31.25;28.50;;;;;11.93;64.05;101701.66;5079524;27;45502;-76
2022/03/10 04:28:24;;;;;;;;;30.50;27.00;;;;;11.99;64.11;101709.78;5079848;27;45366;-75
2022/03/10 04:30:50;;;;;;;;;30.50;28.50;;;;;11.99;63.94;101715.00;5080938;27;45302;-75
2022/03/10 04:33:16;;;;;;;;;38.50;31.25;;;;;11.97;64.48;101718.28;5079537;27;45360;-76
2022/03/10 04:35:43;;;;;;;;;27.25;26.25;;;;;11.99;64.25;101720.19;5079521;27;45873;-78
2022/03/10 04:38:10;;;;;;;;;32.25;31.00;;;;;11.97;64.56;101726.94;5079109;27;45870;-76
2022/03/10 04:40:37;;;;;;;;;32.00;30.25;;;;;11.94;64.70;101716.41;5079464;28;45458;-76
2022/03/10 04:43:03;;;;;;;;;29.00;27.00;;;;;11.99;64.66;101716.69;5080367;27;45512;-75
2022/03/10 04:45:29;;;;;;;;;31.50;28.25;;;;;11.88;64.72;101703.97;5085764;27;45931;-76
2022/03/10 04:47:54;;;;;;;;;33.25;29.50;;;;;12.00;65.20;101726.25;5083222;27;45306;-81
2022/03/10 04:50:20;;;;;;;;;31.50;29.50;;;;;12.05;64.87;101717.91;5079382;27;45328;-76
2022/03/10 04:52:45;;;;;;;;;29.00;27.50;;;;;12.08;64.94;101723.25;5079538;27;45313;-79
2022/03/10 04:55:13;;;;;;;;;32.00;29.50;;;;;12.08;64.62;101712.88;5078685;27;46009;-78
2022/03/10 04:57:39;;;;;;;;;32.25;29.00;;;;;12.12;64.40;101718.25;5078968;27;45783;-77
2022/03/10 05:00:16;;;;;;;;;37.25;31.75;;;;;12.11;64.12;101714.75;5079032;27;45620;-76
2022/03/10 05:02:42;;;;;;;;;31.25;23.25;;;;;12.10;64.73;101714.66;5079089;27;45372;-78
2022/03/10 05:05:08;;;;;;;;;30.00;26.50;;;;;12.09;64.63;101713.78;5093186;27;45933;-76
2022/03/10 05:07:34;;;;;;;;;32.50;30.00;;;;;12.09;64.64;101713.78;5099117;27;45383;-76
2022/03/10 05:10:00;;;;;;;;;30.75;29.75;;;;;12.12;64.83;101710.44;5090243;27;45283;-79
2022/03/10 05:12:26;;;;;;;;;31.00;28.75;;;;;12.19;64.57;101717.75;5078650;28;45235;-75
2022/03/10 05:14:52;;;;;;;;;32.00;29.50;;;;;12.18;64.45;101710.75;5078824;28;45369;-75
2022/03/10 05:17:18;;;;;;;;;31.00;29.00;;;;;12.17;64.40;101707.28;5079034;27;45453;-79
2022/03/10 05:19:43;;;;;;;;;37.50;30.00;;;;;12.12;64.33;101695.75;5079285;27;45276;-81
2022/03/10 05:22:12;;;;;;;;;32.25;32.00;;;;;12.09;64.63;101698.22;5079404;27;45782;-84
2022/03/10 05:24:38;;;;;;;;;34.75;31.75;;;;;12.11;64.61;101706.94;5083628;27;46161;-79
2022/03/10 05:27:04;;;;;;;;;40.50;31.25;;;;;12.11;64.48;101704.34;5080631;28;45310;-76
2022/03/10 05:29:29;;;;;;;;;35.75;31.50;;;;;12.04;64.72;101689.28;5079061;27;45334;-77
2022/03/10 05:31:55;;;;;;;;;31.75;27.25;;;;;12.17;64.89;101706.38;5079042;27;45678;-76
2022/03/10 05:34:20;;;;;;;;;40.00;33.50;;;;;12.17;64.76;101706.38;5078019;27;45868;-76
2022/03/10 05:36:46;;;;;;;;;34.75;31.00;;;;;12.11;64.40;101704.34;5078538;27;45376;-76
2022/03/10 05:39:12;;;;;;;;;30.00;27.00;;;;;12.10;64.56;101704.28;5078306;27;45245;-77
2022/03/10 05:41:37;;;;;;;;;38.25;31.00;;;;;12.10;64.53;101707.75;5078683;27;45555;-76
2022/03/10 05:44:03;;;;;;;;;30.50;28.50;;;;;12.12;65.07;101713.06;5078328;27;45376;-77
2022/03/10 05:46:29;;;;;;;;;38.75;31.25;;;;;12.08;65.13;101707.69;5078432;27;45239;-76
2022/03/10 05:48:55;;;;;;;;;43.75;33.00;;;;;12.07;65.09;101700.72;5078240;27;45371;-76
2022/03/10 05:51:21;;;;;;;;;35.50;29.50;;;;;12.01;65.56;101699.50;5076804;28;45484;-76
2022/03/10 05:53:49;;;;;;;;;38.00;32.00;;;;;12.04;65.70;101710.03;5077875;27;45511;-76
2022/03/10 05:56:15;;;;;;;;;34.25;29.50;;;;;12.05;65.95;101707.50;5077978;27;45884;-75
2022/03/10 05:58:41;;;;;;;;;33.25;31.25;;;;;12.05;65.93;101717.03;5078526;27;45327;-76
2022/03/10 06:01:07;;;;;;;;;36.50;31.75;;;;;12.01;66.18;101707.28;5077915;27;45538;-76
2022/03/10 06:03:33;;;;;;;;;29.00;28.00;;;;;11.97;66.18;101713.97;5082880;28;45306;-81
2022/03/10 06:05:59;;;;;;;;;41.75;33.75;;;;;11.99;66.25;101717.59;5081709;28;45829;-79
2022/03/10 06:08:25;;;;;;;;;31.25;30.00;;;;;11.93;66.53;101715.53;5078279;28;45246;-80
2022/03/10 06:10:51;;;;;;;;;37.25;32.75;;;;;11.96;66.49;101711.31;5077733;28;45458;-77
2022/03/10 06:13:16;;;;;;;;;40.00;34.25;;;;;11.96;66.67;101714.78;5077482;27;46129;-81
2022/03/10 06:15:42;;;;;;;;;34.50;31.25;;;;;11.92;66.78;101705.94;5077788;27;45373;-79
2022/03/10 06:18:08;;;;;;;;;38.25;31.25;;;;;11.97;66.80;101720.88;5077498;27;45316;-75
2022/03/10 06:20:34;;;;;;;;;35.00;30.75;;;;;11.95;66.92;101714.72;5077503;27;45537;-77
2022/03/10 06:23:00;;;;;;;;;37.75;30.50;;;;;11.89;67.01;101712.69;5077458;27;46430;-76
2022/03/10 06:25:26;;;;;;;;;33.75;31.25;;;;;11.71;67.06;101684.94;5077500;28;45801;-77
2022/03/10 06:27:52;;;;;;;;;37.50;31.25;;;;;11.86;66.79;101707.31;5074637;28;45444;-76
2022/03/10 06:30:17;;;;;;;;;37.50;33.00;;;;;11.89;67.45;101712.69;5092730;27;45441;-77
2022/03/10 06:32:43;;;;;;;;;37.75;33.75;;;;;11.83;67.46;101704.53;5076767;28;45322;-78
2022/03/10 06:35:08;;;;;;;;;36.00;32.75;;;;;11.91;67.56;101731.81;5076928;27;45341;-77
2022/03/10 06:37:34;;;;;;;;;38.50;33.50;;;;;11.91;67.54;101731.81;5078519;27;45410;-77
2022/03/10 06:40:00;;;;;;;;;37.00;32.50;;;;;11.91;67.61;101731.81;5080224;27;45369;-77
2022/03/10 06:42:25;;;;;;;;;43.25;33.50;;;;;11.91;67.75;101721.44;5080406;27;46016;-77
2022/03/10 06:44:51;;;;;;;;;37.25;33.00;;;;;11.92;67.90;101723.22;5078653;27;45267;-76
2022/03/10 06:47:17;;;;;;;;;37.00;33.00;;;;;11.95;67.61;101728.56;5076617;28;45407;-78
2022/03/10 06:49:43;;;;;;;;;35.00;30.75;;;;;11.83;67.58;101707.13;5074291;27;45715;-80
2022/03/10 06:52:09;;;;;;;;;38.50;32.75;;;;;11.97;67.77;101731.25;5074753;27;46375;-77
2022/03/10 06:54:35;;;;;;;;;34.50;28.75;;;;;11.92;67.76;101716.31;5075632;27;45513;-78
2022/03/10 06:57:00;;;;;;;;;39.00;32.25;;;;;11.99;67.88;101721.88;5076090;27;45432;-77
2022/03/10 06:59:26;;;;;;;;;37.50;32.25;;;;;12.00;67.79;101721.97;5076973;27;45548;-75
2022/03/10 07:01:52;;;;;;;;;36.75;33.00;;;;;12.00;67.83;101719.38;5076642;27;45390;-80
2022/03/10 07:04:17;;;;;;;;;40.25;34.00;;;;;11.97;67.49;101724.34;5079149;27;45452;-83
2022/03/10 07:06:43;;;;;;;;;35.00;33.50;;;;;11.99;67.76;101722.78;5084475;27;45478;-81
2022/03/10 07:09:08;;;;;;;;;35.00;32.25;;;;;12.04;67.69;101738.59;5096840;27;45260;-77
2022/03/10 07:11:34;;;;;;;;;36.00;31.25;;;;;11.94;67.77;101721.59;5079581;27;46095;-78
2022/03/10 07:14:00;;;;;;;;;40.25;32.75;;;;;12.00;67.89;101739.22;5076860;27;45513;-77
2022/03/10 07:16:25;;;;;;;;;38.50;33.75;;;;;12.02;67.81;101748.91;5076471;27;45556;-78
2022/03/10 07:18:51;;;;;;;;;37.50;32.50;;;;;11.99;67.82;101746.13;5077429;27;45444;-78
2022/03/10 07:21:21;;;;;;;;;37.75;33.00;;;;;12.04;67.89;101754.16;5082835;27;45330;-74
2022/03/10 07:23:47;;;;;;;;;43.25;35.00;;;;;11.92;68.09;101736.22;5081783;27;45362;-75
2022/03/10 07:26:13;;;;;;;;;36.75;30.75;;;;;11.99;68.20;101753.91;5076614;27;45367;-76
2022/03/10 07:28:39;;;;;;;;;41.50;34.00;;;;;12.01;68.00;101751.41;5076135;27;45327;-77
2022/03/10 07:31:05;;;;;;;;;38.75;34.00;;;;;12.02;68.03;101742.81;5077239;27;45459;-84
2022/03/10 07:33:31;;;;;;;;;36.25;32.25;;;;;12.02;68.07;101735.00;5076228;27;45373;-76
2022/03/10 07:35:56;;;;;;;;;39.25;33.75;;;;;12.05;68.29;101758.56;5086512;27;46983;-79
2022/03/10 07:38:22;;;;;;;;;36.25;32.00;;;;;11.99;68.81;101734.84;5089047;27;45467;-83
2022/03/10 07:40:48;;;;;;;;;38.75;34.00;;;;;12.03;68.91;101744.59;5077107;28;46240;-79
2022/03/10 07:43:15;;;;;;;;;46.00;36.25;;;;;12.05;68.62;101753.34;5075694;27;45500;-79
2022/03/10 07:45:41;;;;;;;;;40.50;32.75;;;;;12.00;68.71;101739.22;5074576;27;45463;-77
2022/03/10 07:48:06;;;;;;;;;45.00;38.25;;;;;11.90;68.59;101723.13;5078023;27;45464;-75
2022/03/10 07:50:32;;;;;;;;;36.00;32.25;;;;;12.12;68.38;101758.06;5072919;27;45472;-77
2022/03/10 07:52:58;;;;;;;;;42.25;32.75;;;;;12.08;68.35;101751.81;5074275;28;45381;-80
2022/03/10 07:55:23;;;;;;;;;39.50;34.00;;;;;12.05;68.75;101754.25;5075488;27;45445;-80
2022/03/10 07:57:49;;;;;;;;;45.25;36.00;;;;;12.01;68.58;101741.00;5076920;28;45306;-79
2022/03/10 08:00:15;;;;;;;;;42.75;33.50;;;;;12.05;68.79;101748.16;5079416;27;46141;-77
2022/03/10 08:02:41;;;;;;;;;44.75;38.00;;;;;12.05;68.94;101754.25;5076203;28;45811;-79
2022/03/10 08:05:08;;;;;;;;;49.25;38.50;;;;;11.99;69.11;101753.91;5074953;28;45472;-76
2022/03/10 08:07:34;;;;;;;;;39.75;34.75;;;;;11.98;69.02;101743.47;5074654;27;45493;-76
2022/03/10 08:10:00;;;;;;;;;44.75;34.75;;;;;12.07;69.17;101756.94;5074327;28;46230;-81
2022/03/10 08:12:28;;;;;;;;;41.50;34.25;;;;;12.07;69.15;101757.81;5076098;27;45792;-76
2022/03/10 08:14:53;;;;;;;;;40.75;34.25;;;;;12.02;69.20;101751.50;5073782;27;45413;-74
2022/03/10 08:17:19;;;;;;;;;36.75;33.00;;;;;12.04;69.33;101748.97;5074701;27;45401;-79
2022/03/10 08:19:45;;;;;;;;;41.25;35.25;;;;;12.11;69.11;101770.97;5074495;28;45310;-77
2022/03/10 08:22:10;;;;;;;;;42.75;36.25;;;;;12.06;69.41;101758.63;5074374;27;45500;-82
2022/03/10 08:24:36;;;;;;;;;43.50;34.50;;;;;12.04;69.69;101742.06;5075427;27;45444;-79
2022/03/10 08:27:02;;;;;;;;;46.25;35.25;;;;;12.10;69.87;101756.19;5076465;28;45439;-80
2022/03/10 08:29:28;;;;;;;;;35.25;32.50;;;;;12.11;69.56;101764.06;5075022;28;45857;-77
2022/03/10 08:31:53;;;;;;;;;37.75;30.50;;;;;11.88;70.29;101739.44;5075649;28;45511;-80
2022/03/10 08:34:19;;;;;;;;;41.75;33.25;;;;;12.00;70.60;101766.09;5075430;28;45293;-79
2022/03/10 08:36:45;;;;;;;;;36.00;34.00;;;;;11.99;70.78;101763.38;5076493;27;45492;-86
2022/03/10 08:39:15;;;;;;;;;40.00;31.50;;;;;12.01;71.07;101761.78;5077697;27;45853;-77
2022/03/10 08:41:41;;;;;;;;;41.50;34.75;;;;;11.94;70.51;101742.34;5096228;27;45480;-78
2022/03/10 08:44:07;;;;;;;;;36.00;30.25;;;;;11.88;71.04;101737.72;5080974;28;45307;-84
2022/03/10 08:46:33;;;;;;;;;32.75;32.00;;;;;12.00;70.75;101758.31;5081010;27;45403;-76
2022/03/10 08:48:58;;;;;;;;;38.25;34.00;;;;;12.04;71.07;101752.44;5088368;27;45465;-77
2022/03/10 08:51:24;;;;;;;;;33.75;31.50;;;;;12.00;70.98;101728.84;5095994;27;45415;-79
2022/03/10 08:53:50;;;;;;;;;36.50;32.50;;;;;12.13;70.34;101735.59;5092245;27;45654;-90
2022/03/10 08:56:15;;;;;;;;;34.50;28.50;;;;;12.17;70.60;101746.22;5087646;28;44886;-75
2022/03/10 08:58:41;;;;;;;;;28.50;25.00;;;;;12.21;71.03;101745.56;5079864;27;45798;-82
2022/03/10 09:01:07;;;;;;;;;30.75;26.25;;;;;12.11;70.55;101727.72;5080289;28;45377;-82
2022/03/10 09:03:32;;;;;;;;;31.25;28.25;;;;;12.20;70.54;101730.78;5081341;27;45402;-85
2022/03/10 09:05:58;;;;;;;;;29.25;26.00;;;;;12.21;70.28;101724.78;5080858;27;45398;-82
2022/03/10 09:08:23;;;;;;;;;32.00;29.25;;;;;12.27;70.37;101738.94;5079795;27;45825;-82
2022/03/10 09:10:49;;;;;;;;;39.75;32.25;;;;;12.27;70.35;101739.81;5080134;27;45244;-79
2022/03/10 09:13:15;;;;;;;;;36.75;32.75;;;;;12.29;70.68;101735.59;5081398;27;45234;-83
2022/03/10 09:15:40;;;;;;;;;32.00;30.00;;;;;12.34;70.49;101748.81;5081373;27;45372;-76
2022/03/10 09:18:06;;;;;;;;;32.75;28.00;;;;;12.38;70.54;101737.78;5084951;27;45394;-82
2022/03/10 09:20:32;;;;;;;;;26.50;23.75;;;;;12.38;70.30;101743.84;5083804;28;45455;-77
2022/03/10 09:22:58;;;;;;;;;28.25;24.50;;;;;12.36;70.28;101742.88;5084901;27;45781;-87
2022/03/10 09:25:24;;;;;;;;;28.50;27.50;;;;;12.26;70.56;101719.84;5082533;27;45367;-81
2022/03/10 09:27:50;;;;;;;;;31.75;25.25;;;;;12.36;70.67;101742.88;5080513;27;47184;-82
2022/03/10 09:30:16;;;;;;;;;35.75;32.00;;;;;12.34;70.67;101744.53;5081709;28;45342;-82
2022/03/10 09:32:44;;;;;;;;;35.00;29.75;;;;;12.38;70.89;101740.38;5082678;27;45441;-84
2022/03/10 09:35:12;;;;;;;;;35.50;29.00;;;;;12.40;71.06;101736.16;5080050;27;45484;-82
2022/03/10 09:37:39;;;;;;;;;26.50;25.75;;;;;12.42;71.16;101734.53;5080838;27;45887;-79
2022/03/10 09:40:06;;;;;;;;;28.50;25.75;;;;;12.50;71.32;101728.03;5080286;28;45406;-79
2022/03/10 09:42:33;;;;;;;;;34.50;30.25;;;;;12.61;71.07;101733.78;5078791;28;45292;-79
2022/03/10 09:45:03;;;;;;;;;33.00;31.50;;;;;12.70;70.88;101736.84;5078850;27;45273;-82
2022/03/10 09:47:29;;;;;;;;;33.50;29.25;;;;;12.91;70.91;101723.13;5079258;28;46497;-76
2022/03/10 09:49:55;;;;;;;;;29.25;28.00;;;;;13.09;70.07;101720.56;5078371;27;45373;-78
2022/03/10 09:52:22;;;;;;;;;29.25;27.50;;;;;13.24;69.60;101722.13;5079314;27;45344;-84
2022/03/10 09:54:48;;;;;;;;;30.75;30.00;;;;;13.30;68.69;101722.44;5082835;27;45654;-76
2022/03/10 09:57:16;;;;;;;;;30.50;30.00;;;;;13.27;68.25;101702.38;5081258;27;45472;-75
2022/03/10 09:59:49;;;;;;;;;30.75;27.00;;;;;13.44;68.14;101716.22;5081486;27;45332;-83
2022/03/10 10:02:16;;;;;;;;;32.00;27.25;;;;;13.48;68.08;101712.03;5079830;27;45327;-79
2022/03/10 10:04:41;;;;;;;;;28.50;27.00;;;;;13.45;68.28;101701.47;5079586;27;45299;-78
2022/03/10 10:07:08;;;;;;;;;27.00;25.25;;;;;13.64;67.46;101725.78;5078304;27;45893;-75
2022/03/10 10:09:44;;;;;;;;;32.75;30.00;;;;;13.65;67.76;101715.44;5082731;27;45406;-84
2022/03/10 10:12:12;;;;;;;;;30.00;28.25;;;;;13.72;67.80;101711.41;5080954;27;45481;-83
2022/03/10 10:14:41;;;;;;;;;29.75;27.50;;;;;13.78;67.23;101722.09;5078438;28;45251;-80
2022/03/10 10:17:07;;;;;;;;;29.25;27.25;;;;;13.84;67.09;101713.69;5079698;28;45995;-82
2022/03/10 10:19:37;;;;;;;;;25.75;25.25;;;;;13.87;67.42;101712.13;5080243;27;45327;-81
2022/03/10 10:22:21;;;;;;;;;22.00;19.75;;;;;13.89;67.66;101709.59;5080593;27;45280;-88
2022/03/10 10:24:55;;;;;;;;;27.50;21.50;;;;;13.86;67.48;101707.75;5083425;27;45173;-77
2022/03/10 10:27:23;;;;;;;;;29.75;19.25;;;;;13.90;68.82;101701.84;5058744;28;46414;-77
2022/03/10 10:29:50;;;;;;;;;21.00;19.75;;;;;13.96;68.12;101705.56;5057381;28;45727;-74
2022/03/10 10:32:41;;;;;;;;;27.00;21.50;;;;;13.99;68.22;101693.56;5076366;28;45377;-74
2022/03/10 10:35:20;;;;;;;;;24.25;20.75;;;;;14.04;68.04;101696.38;5074803;27;45483;-74
2022/03/10 10:37:52;;;;;;;;;26.00;21.50;;;;;14.07;67.77;101694.78;5076599;28;46038;-75
2022/03/10 10:40:24;;;;;;;;;21.50;17.00;;;;;14.12;68.28;101695.00;5056175;28;45886;-74
2022/03/10 10:42:50;;;;;;;;;18.75;13.50;;;;;14.20;67.71;101690.13;5056068;28;45519;-74
2022/03/10 10:45:42;;;;;;;;;17.75;17.25;;;;;14.23;68.04;101678.13;5071851;27;45522;-75
2022/03/10 10:48:10;;;;;;;;;15.50;15.50;;;;;14.28;67.85;101677.47;5055487;28;46054;-75
2022/03/10 10:50:42;;;;;;;;;16.00;14.25;;;;;14.33;67.64;101665.50;5056260;28;45854;-76
2022/03/10 10:53:08;;;;;;;;;16.50;15.50;;;;;14.37;67.27;101659.63;5056211;28;45342;-76
2022/03/10 10:55:38;;;;;;;;;15.75;15.25;;;;;14.38;67.92;101658.78;5056731;28;45308;-75
2022/03/10 10:58:13;;;;;;;;;14.50;14.50;;;;;14.48;67.83;101657.44;5071539;28;46171;-76
2022/03/10 11:00:44;;;;;;;;;16.00;14.25;;;;;14.54;67.61;101666.41;5075392;27;45431;-75
2022/03/10 11:03:25;;;;;;;;;17.00;14.50;;;;;14.60;67.64;101664.91;5075549;28;45441;-74
2022/03/10 11:05:51;;;;;;;;;15.75;13.75;;;;;14.61;67.39;101645.84;5074887;28;45539;-75
2022/03/10 11:08:21;;;;;;;;;18.50;14.25;;;;;14.57;67.50;101642.22;5077811;28;45492;-74
2022/03/10 11:10:48;;;;;;;;;16.25;13.00;;;;;14.62;68.15;101642.41;5080797;27;45921;-76
2022/03/10 11:13:15;;;;;;;;;22.00;18.75;;;;;14.61;68.06;101630.22;5075771;28;45450;-77